createdAt,value
2022-09-25T00:00:50.221Z,91.33
2022-09-25T00:03:18.099Z,91.62
2022-09-25T00:05:45.954Z,91.94
2022-09-25T00:08:13.151Z,91.98
2022-09-25T00:10:48.579Z,91.65
2022-09-25T00:13:16.562Z,92.19
2022-09-25T00:15:51.138Z,92.50
2022-09-25T00:18:37.605Z,92.21
2022-09-25T00:21:05.482Z,92.41
2022-09-25T00:23:32.298Z,92.56
2022-09-25T00:25:59.808Z,92.84
2022-09-25T00:28:29.053Z,93.05
2022-09-25T00:30:56.486Z,93.26
2022-09-25T00:33:23.631Z,93.47
2022-09-25T00:35:50.324Z,93.90
2022-09-25T00:38:16.753Z,94.22
2022-09-25T00:40:43.362Z,93.99
2022-09-25T00:43:14.674Z,94.20
2022-09-25T00:45:42.418Z,94.71
2022-09-25T00:48:14.065Z,94.25
2022-09-25T00:50:48.768Z,94.88
2022-09-25T00:53:21.265Z,94.95
2022-09-25T00:55:47.773Z,95.66
2022-09-25T00:58:17.630Z,95.09
2022-09-25T01:00:44.514Z,95.74
2022-09-25T01:03:11.424Z,95.65
2022-09-25T01:05:41.859Z,95.38
2022-09-25T01:08:11.120Z,96.22
2022-09-25T01:10:37.619Z,96.32
2022-09-25T01:13:04.662Z,96.21
2022-09-25T01:15:37.108Z,96.00
2022-09-25T01:18:25.347Z,96.16
2022-09-25T01:21:28.103Z,96.83
2022-09-25T01:24:11.641Z,96.95
2022-09-25T01:27:13.380Z,97.03
2022-09-25T01:29:53.994Z,97.29
2022-09-25T01:32:25.846Z,98.00
2022-09-25T01:35:18.574Z,97.96
2022-09-25T01:37:49.637Z,98.31
2022-09-25T01:40:16.193Z,97.84
2022-09-25T01:42:55.625Z,97.87
2022-09-25T01:45:28.144Z,97.74
2022-09-25T01:47:57.192Z,98.94
2022-09-25T01:50:48.003Z,98.46
2022-09-25T01:53:18.756Z,98.94
2022-09-25T01:55:49.185Z,99.57
2022-09-25T01:58:39.072Z,99.93
2022-09-25T02:01:14.966Z,99.30
2022-09-25T02:03:46.654Z,99.62
2022-09-25T02:06:16.957Z,100.00
2022-09-25T02:09:04.304Z,100.00
2022-09-25T02:11:36.317Z,99.94
2022-09-25T02:14:06.891Z,99.69
2022-09-25T02:16:38.524Z,100.00
2022-09-25T02:19:24.164Z,100.00
2022-09-25T02:22:04.542Z,100.00
2022-09-25T02:24:39.487Z,100.00
2022-09-25T02:27:06.154Z,100.00
2022-09-25T02:29:32.705Z,100.00
2022-09-25T02:32:09.021Z,100.00
2022-09-25T02:34:36.249Z,100.00
2022-09-25T02:37:03.281Z,100.00
2022-09-25T02:39:30.731Z,100.00
2022-09-25T02:42:14.682Z,100.00
2022-09-25T02:45:18.192Z,100.00
2022-09-25T02:47:56.552Z,100.00
2022-09-25T02:50:41.219Z,100.00
2022-09-25T02:53:18.532Z,100.00
2022-09-25T02:55:51.963Z,100.00
2022-09-25T02:58:24.676Z,100.00
2022-09-25T03:00:52.925Z,100.00
2022-09-25T03:03:20.158Z,100.00
2022-09-25T03:05:48.635Z,100.00
2022-09-25T03:08:33.971Z,100.00
2022-09-25T03:11:00.689Z,100.00
2022-09-25T03:13:32.023Z,100.00
2022-09-25T03:16:04.381Z,100.00
2022-09-25T03:18:31.527Z,100.00
2022-09-25T03:20:58.617Z,100.00
2022-09-25T03:23:25.270Z,100.00
2022-09-25T03:25:55.273Z,100.00
2022-09-25T03:28:22.689Z,100.00
2022-09-25T03:31:02.043Z,100.00
2022-09-25T03:33:30.823Z,100.00
2022-09-25T03:36:03.163Z,100.00
2022-09-25T03:38:29.580Z,100.00
2022-09-25T03:40:56.077Z,100.00
2022-09-25T03:43:22.630Z,100.00
2022-09-25T03:45:49.113Z,100.00
2022-09-25T03:48:15.644Z,100.00
2022-09-25T03:50:42.114Z,100.00
2022-09-25T03:53:08.595Z,100.00
2022-09-25T03:55:35.032Z,100.00
2022-09-25T03:58:01.436Z,100.00
2022-09-25T04:00:27.884Z,100.00
2022-09-25T04:02:54.355Z,100.00
2022-09-25T04:05:21.097Z,100.00
2022-09-25T04:07:48.208Z,100.00
2022-09-25T04:10:14.726Z,100.00
2022-09-25T04:12:43.524Z,100.00
2022-09-25T04:15:10.220Z,100.00
2022-09-25T04:17:36.636Z,100.00
2022-09-25T04:20:04.611Z,100.00
2022-09-25T04:22:31.101Z,100.00
2022-09-25T04:24:58.349Z,100.00
2022-09-25T04:27:24.788Z,99.68
2022-09-25T04:29:51.177Z,99.82
2022-09-25T04:32:36.192Z,99.91
2022-09-25T04:35:04.079Z,98.78
2022-09-25T04:37:30.761Z,98.98
2022-09-25T04:39:58.264Z,98.85
2022-09-25T04:42:25.454Z,98.70
2022-09-25T04:44:53.611Z,98.22
2022-09-25T04:47:21.253Z,97.60
2022-09-25T04:49:48.144Z,97.56
2022-09-25T04:52:15.847Z,97.38
2022-09-25T04:54:42.802Z,97.74
2022-09-25T04:57:11.026Z,97.06
2022-09-25T04:59:37.934Z,96.44
2022-09-25T05:02:04.714Z,95.82
2022-09-25T05:04:31.396Z,94.97
2022-09-25T05:06:57.998Z,95.15
2022-09-25T05:09:24.451Z,94.66
2022-09-25T05:11:51.006Z,94.83
2022-09-25T05:14:17.441Z,94.05
2022-09-25T05:16:46.292Z,93.75
2022-09-25T05:19:13.092Z,93.07
2022-09-25T05:21:39.907Z,93.14
2022-09-25T05:24:08.448Z,92.40
2022-09-25T05:26:36.213Z,91.70
2022-09-25T05:29:04.349Z,90.63
2022-09-25T05:31:33.715Z,90.83
2022-09-25T05:34:00.276Z,88.97
2022-09-25T05:36:26.888Z,88.81
2022-09-25T05:38:54.498Z,88.84
2022-09-25T05:41:21.660Z,88.38
2022-09-25T05:43:48.106Z,88.07
2022-09-25T05:46:15.415Z,88.21
2022-09-25T05:48:42.072Z,87.67
2022-09-25T05:51:08.677Z,85.44
2022-09-25T05:53:35.180Z,86.08
2022-09-25T05:56:04.461Z,84.88
2022-09-25T05:58:33.419Z,84.02
2022-09-25T06:01:01.594Z,84.42
2022-09-25T06:03:30.885Z,83.33
2022-09-25T06:05:58.223Z,81.71
2022-09-25T06:08:25.798Z,81.76
2022-09-25T06:10:54.194Z,80.66
2022-09-25T06:13:22.081Z,79.71
2022-09-25T06:15:50.817Z,79.66
2022-09-25T06:18:17.397Z,80.04
2022-09-25T06:20:44.094Z,79.11
2022-09-25T06:23:10.697Z,78.13
2022-09-25T06:25:37.222Z,77.27
2022-09-25T06:28:04.891Z,77.24
2022-09-25T06:30:36.275Z,78.76
2022-09-25T06:33:13.504Z,76.81
2022-09-25T06:35:44.199Z,77.14
2022-09-25T06:38:11.211Z,76.62
2022-09-25T06:40:40.958Z,75.68
2022-09-25T06:43:10.646Z,74.95
2022-09-25T06:45:39.133Z,75.54
2022-09-25T06:48:10.179Z,73.90
2022-09-25T06:50:41.496Z,75.30
2022-09-25T06:53:08.851Z,73.84
2022-09-25T06:55:35.613Z,72.76
2022-09-25T06:58:03.090Z,72.48
2022-09-25T07:00:29.729Z,73.10
2022-09-25T07:03:17.122Z,72.01
2022-09-25T07:05:44.532Z,70.91
2022-09-25T07:08:13.987Z,71.31
2022-09-25T07:10:45.102Z,71.42
2022-09-25T07:13:12.230Z,70.51
2022-09-25T07:15:39.289Z,69.40
2022-09-25T07:18:05.870Z,65.64
2022-09-25T07:20:32.606Z,59.60
2022-09-25T07:23:04.347Z,51.28
2022-09-25T07:25:33.961Z,40.57
2022-09-25T07:28:00.451Z,35.65
2022-09-25T07:30:32.344Z,31.36
2022-09-25T07:33:00.267Z,29.29
2022-09-25T07:35:27.301Z,27.45
2022-09-25T07:37:59.518Z,25.35
2022-09-25T07:40:28.924Z,22.87
2022-09-25T07:43:03.895Z,21.85
2022-09-25T07:45:31.313Z,20.88
2022-09-25T07:48:00.790Z,19.80
2022-09-25T07:50:28.714Z,20.22
2022-09-25T07:52:55.674Z,19.69
2022-09-25T07:55:22.727Z,19.58
2022-09-25T07:57:52.174Z,19.74
2022-09-25T08:00:18.835Z,18.56
2022-09-25T08:02:45.443Z,17.45
2022-09-25T08:05:12.407Z,16.83
2022-09-25T08:07:40.089Z,18.37
2022-09-25T08:10:07.420Z,16.57
2022-09-25T08:12:34.224Z,16.73
2022-09-25T08:15:00.718Z,16.99
2022-09-25T08:17:31.224Z,17.83
2022-09-25T08:19:58.471Z,18.15
2022-09-25T08:22:25.126Z,21.19
2022-09-25T08:24:51.867Z,22.61
2022-09-25T08:27:18.512Z,23.89
2022-09-25T08:29:45.437Z,26.67
2022-09-25T08:32:12.161Z,29.40
2022-09-25T08:34:41.464Z,32.05
2022-09-25T08:37:09.672Z,35.78
2022-09-25T08:39:36.340Z,37.42
2022-09-25T08:42:06.560Z,37.32
2022-09-25T08:44:56.950Z,39.24
2022-09-25T08:47:48.148Z,41.39
2022-09-25T08:50:22.785Z,43.03
2022-09-25T08:52:53.540Z,43.42
2022-09-25T08:55:46.123Z,45.03
2022-09-25T08:58:21.029Z,45.90
2022-09-25T09:00:48.006Z,45.07
2022-09-25T09:03:15.329Z,42.37
2022-09-25T09:05:51.717Z,42.22
2022-09-25T09:08:20.677Z,42.26
2022-09-25T09:10:53.248Z,43.87
2022-09-25T09:13:30.729Z,43.03
2022-09-25T09:16:02.089Z,43.95
2022-09-25T09:18:36.519Z,44.27
2022-09-25T09:21:28.706Z,43.31
2022-09-25T09:24:26.360Z,42.80
2022-09-25T09:27:16.359Z,41.02
2022-09-25T09:30:15.892Z,41.16
2022-09-25T09:33:01.753Z,41.52
2022-09-25T09:35:49.186Z,41.29
2022-09-25T09:38:21.678Z,41.24
2022-09-25T09:41:26.970Z,42.46
2022-09-25T09:44:19.258Z,43.33
2022-09-25T09:47:17.514Z,43.73
2022-09-25T09:49:51.114Z,44.98
2022-09-25T09:52:21.321Z,45.45
2022-09-25T09:54:58.096Z,47.45
2022-09-25T09:57:27.417Z,48.14
2022-09-25T10:00:03.653Z,47.35
2022-09-25T10:02:40.805Z,47.46
2022-09-25T10:05:32.079Z,47.81
2022-09-25T10:07:58.673Z,46.66
2022-09-25T10:10:37.349Z,46.79
2022-09-25T10:13:07.372Z,47.02
2022-09-25T10:15:39.114Z,45.86
2022-09-25T10:18:06.939Z,44.67
2022-09-25T10:20:42.359Z,44.38
2022-09-25T10:23:32.428Z,42.94
2022-09-25T10:25:59.182Z,41.97
2022-09-25T10:28:32.426Z,43.59
2022-09-25T10:31:00.134Z,43.83
2022-09-25T10:33:29.324Z,42.81
2022-09-25T10:35:56.435Z,42.53
2022-09-25T10:38:44.320Z,42.94
2022-09-25T10:41:13.279Z,43.23
2022-09-25T10:44:03.013Z,43.86
2022-09-25T10:46:52.723Z,41.31
2022-09-25T10:49:43.479Z,41.27
2022-09-25T10:52:15.374Z,42.03
2022-09-25T10:54:45.447Z,40.89
2022-09-25T10:57:25.509Z,42.76
2022-09-25T10:59:52.483Z,42.20
2022-09-25T11:02:43.071Z,41.38
2022-09-25T11:05:18.372Z,40.66
2022-09-25T11:07:55.324Z,41.52
2022-09-25T11:10:24.260Z,42.21
2022-09-25T11:12:51.476Z,41.28
2022-09-25T11:15:20.584Z,40.73
2022-09-25T11:17:52.287Z,37.63
2022-09-25T11:20:31.806Z,37.47
2022-09-25T11:23:17.440Z,38.74
2022-09-25T11:26:05.995Z,38.92
2022-09-25T11:28:49.214Z,42.39
2022-09-25T11:31:41.280Z,40.42
2022-09-25T11:34:21.235Z,39.72
2022-09-25T11:37:04.389Z,40.05
2022-09-25T11:40:16.278Z,39.56
2022-09-25T11:42:42.755Z,40.53
2022-09-25T11:45:30.461Z,40.70
2022-09-25T11:48:05.371Z,40.28
2022-09-25T11:51:10.103Z,42.08
2022-09-25T11:54:25.221Z,41.42
2022-09-25T11:57:34.571Z,43.30
2022-09-25T12:00:14.420Z,43.23
2022-09-25T12:02:52.831Z,43.02
2022-09-25T12:05:29.578Z,42.23
2022-09-25T12:08:04.967Z,41.33
2022-09-25T12:10:44.047Z,42.09
2022-09-25T12:13:23.856Z,41.85
2022-09-25T12:16:04.372Z,42.41
2022-09-25T12:19:03.369Z,42.92
2022-09-25T12:21:34.592Z,44.19
2022-09-25T12:24:06.235Z,42.82
2022-09-25T12:26:55.352Z,40.86
2022-09-25T12:29:35.676Z,39.93
2022-09-25T12:32:25.496Z,40.62
2022-09-25T12:35:29.567Z,41.02
2022-09-25T12:38:05.649Z,42.27
2022-09-25T12:40:40.366Z,41.65
2022-09-25T12:43:28.938Z,42.77
2022-09-25T12:46:31.804Z,43.45
2022-09-25T12:49:05.986Z,41.05
2022-09-25T12:51:51.435Z,41.17
2022-09-25T12:54:25.797Z,41.42
2022-09-25T12:56:56.788Z,40.68
2022-09-25T12:59:34.042Z,41.09
2022-09-25T13:02:04.439Z,40.37
2022-09-25T13:04:53.251Z,40.17
2022-09-25T13:07:25.128Z,39.35
2022-09-25T13:09:52.211Z,40.10
2022-09-25T13:12:33.283Z,39.74
2022-09-25T13:15:18.803Z,40.04
2022-09-25T13:17:45.345Z,40.35
2022-09-25T13:20:27.052Z,40.71
2022-09-25T13:23:05.751Z,40.65
2022-09-25T13:25:42.155Z,41.49
2022-09-25T13:28:17.030Z,41.34
2022-09-25T13:30:58.135Z,42.80
2022-09-25T13:33:24.948Z,42.98
2022-09-25T13:36:07.111Z,42.41
2022-09-25T13:38:58.480Z,41.62
2022-09-25T13:41:25.629Z,40.79
2022-09-25T13:44:31.359Z,43.27
2022-09-25T13:47:25.924Z,41.15
2022-09-25T13:50:19.013Z,42.68
2022-09-25T13:52:45.506Z,42.86
2022-09-25T13:55:17.152Z,43.33
2022-09-25T13:57:58.984Z,44.84
2022-09-25T14:00:55.762Z,44.49
2022-09-25T14:03:30.333Z,44.76
2022-09-25T14:05:57.439Z,45.93
2022-09-25T14:08:24.224Z,44.40
2022-09-25T14:10:52.037Z,44.38
2022-09-25T14:13:22.248Z,44.04
2022-09-25T14:15:48.694Z,44.40
2022-09-25T14:18:36.327Z,44.54
2022-09-25T14:21:06.337Z,44.94
2022-09-25T14:23:33.408Z,44.67
2022-09-25T14:26:01.982Z,44.13
2022-09-25T14:28:30.902Z,43.40
2022-09-25T14:31:26.267Z,45.50
2022-09-25T14:34:20.511Z,47.25
2022-09-25T14:37:18.754Z,46.14
2022-09-25T14:40:06.039Z,46.34
2022-09-25T14:42:43.907Z,47.83
2022-09-25T14:45:34.299Z,49.24
2022-09-25T14:48:04.458Z,49.09
2022-09-25T14:50:34.624Z,47.78
2022-09-25T14:53:08.158Z,50.43
2022-09-25T14:55:37.867Z,49.35
2022-09-25T14:58:09.463Z,50.38
2022-09-25T15:00:44.705Z,49.27
2022-09-25T15:03:13.965Z,49.42
2022-09-25T15:05:46.507Z,49.34
2022-09-25T15:08:23.069Z,48.87
2022-09-25T15:11:01.132Z,49.36
2022-09-25T15:13:33.512Z,49.71
2022-09-25T15:16:19.194Z,53.00
2022-09-25T15:18:50.007Z,53.53
2022-09-25T15:21:32.184Z,54.16
2022-09-25T15:24:02.379Z,52.73
2022-09-25T15:26:30.968Z,52.42
2022-09-25T15:28:57.579Z,53.91
2022-09-25T15:31:25.260Z,55.25
2022-09-25T15:34:04.493Z,54.54
2022-09-25T15:36:31.095Z,53.89
2022-09-25T15:39:03.262Z,54.14
2022-09-25T15:41:30.005Z,54.00
2022-09-25T15:44:13.106Z,55.72
2022-09-25T15:46:42.871Z,56.53
2022-09-25T15:49:14.620Z,55.98
2022-09-25T15:51:52.759Z,54.68
2022-09-25T15:54:42.751Z,56.45
2022-09-25T15:57:13.259Z,56.28
2022-09-25T16:00:05.961Z,56.54
2022-09-25T16:02:57.165Z,56.71
2022-09-25T16:05:35.434Z,56.02
2022-09-25T16:08:23.899Z,56.87
2022-09-25T16:11:04.462Z,56.91
2022-09-25T16:13:30.988Z,56.73
2022-09-25T16:15:57.754Z,58.49
2022-09-25T16:18:32.141Z,59.92
2022-09-25T16:21:29.807Z,60.16
2022-09-25T16:24:07.442Z,60.15
2022-09-25T16:26:40.769Z,60.89
2022-09-25T16:29:17.606Z,61.09
2022-09-25T16:31:44.983Z,61.46
2022-09-25T16:34:25.952Z,61.46
2022-09-25T16:36:54.665Z,61.69
2022-09-25T16:39:28.414Z,62.61
2022-09-25T16:41:55.414Z,63.32
2022-09-25T16:44:25.238Z,63.52
2022-09-25T16:46:52.358Z,63.72
2022-09-25T16:49:21.978Z,64.59
2022-09-25T16:51:50.242Z,64.83
2022-09-25T16:54:18.753Z,65.42
2022-09-25T16:56:46.595Z,66.08
2022-09-25T16:59:24.465Z,66.59
2022-09-25T17:01:53.071Z,66.41
2022-09-25T17:04:26.556Z,66.50
2022-09-25T17:06:54.322Z,66.65
2022-09-25T17:09:20.768Z,67.38
2022-09-25T17:11:50.143Z,68.24
2022-09-25T17:14:23.114Z,68.68
2022-09-25T17:16:54.115Z,70.38
2022-09-25T17:19:21.375Z,71.38
2022-09-25T17:21:53.078Z,71.83
2022-09-25T17:24:22.641Z,71.58
2022-09-25T17:26:50.440Z,71.89
2022-09-25T17:29:17.024Z,72.12
2022-09-25T17:31:43.884Z,72.56
2022-09-25T17:34:16.979Z,72.58
2022-09-25T17:36:43.703Z,73.20
2022-09-25T17:39:10.572Z,73.73
2022-09-25T17:41:37.776Z,74.27
2022-09-25T17:44:05.246Z,74.78
2022-09-25T17:46:36.429Z,75.01
2022-09-25T17:49:04.276Z,76.08
2022-09-25T17:51:30.881Z,76.68
2022-09-25T17:53:59.154Z,77.70
2022-09-25T17:56:28.224Z,77.86
2022-09-25T17:58:57.332Z,78.11
2022-09-25T18:01:27.200Z,78.47
2022-09-25T18:03:59.842Z,78.70
2022-09-25T18:06:27.652Z,78.70
2022-09-25T18:08:55.972Z,78.71
2022-09-25T18:11:23.843Z,79.02
2022-09-25T18:13:54.670Z,79.42
2022-09-25T18:16:25.816Z,80.21
2022-09-25T18:19:11.152Z,79.86
2022-09-25T18:21:56.825Z,80.17
2022-09-25T18:24:23.385Z,80.86
2022-09-25T18:26:53.194Z,81.43
2022-09-25T18:29:20.924Z,82.62
2022-09-25T18:31:50.624Z,82.58
2022-09-25T18:34:18.329Z,82.15
2022-09-25T18:36:45.449Z,82.68
2022-09-25T18:39:16.094Z,82.67
2022-09-25T18:41:47.733Z,82.40
2022-09-25T18:44:15.241Z,82.56
2022-09-25T18:46:41.873Z,82.42
2022-09-25T18:49:08.803Z,82.47
2022-09-25T18:51:35.683Z,83.07
2022-09-25T18:54:04.629Z,82.88
2022-09-25T18:56:34.458Z,83.12
2022-09-25T18:59:05.906Z,83.28
2022-09-25T19:01:34.057Z,84.14
2022-09-25T19:04:00.709Z,83.36
2022-09-25T19:06:27.303Z,83.86
2022-09-25T19:08:57.878Z,83.58
2022-09-25T19:11:25.240Z,83.94
2022-09-25T19:13:51.751Z,83.90
2022-09-25T19:16:18.717Z,84.46
2022-09-25T19:18:45.351Z,84.67
2022-09-25T19:21:15.673Z,85.67
2022-09-25T19:23:42.809Z,85.37
2022-09-25T19:26:14.808Z,85.19
2022-09-25T19:28:41.792Z,85.26
2022-09-25T19:31:13.551Z,85.81
2022-09-25T19:33:40.355Z,85.97
2022-09-25T19:36:13.455Z,85.91
2022-09-25T19:38:43.528Z,86.66
2022-09-25T19:41:13.418Z,86.77
2022-09-25T19:43:39.984Z,87.21
2022-09-25T19:46:06.833Z,87.59
2022-09-25T19:48:33.572Z,87.49
2022-09-25T19:51:06.446Z,87.39
2022-09-25T19:53:32.961Z,87.88
2022-09-25T19:55:59.393Z,88.43
2022-09-25T19:58:25.914Z,88.19
2022-09-25T20:00:53.624Z,88.70
2022-09-25T20:03:20.247Z,88.82
2022-09-25T20:05:48.876Z,89.40
2022-09-25T20:08:15.731Z,89.56
2022-09-25T20:10:42.218Z,90.19
2022-09-25T20:13:10.036Z,90.46
2022-09-25T20:15:36.824Z,90.80
2022-09-25T20:18:10.694Z,91.04
2022-09-25T20:20:37.206Z,90.37
2022-09-25T20:23:04.754Z,88.79
2022-09-25T20:25:31.841Z,88.31
2022-09-25T20:27:59.891Z,88.47
2022-09-25T20:30:30.712Z,89.26
2022-09-25T20:32:59.570Z,89.40
2022-09-25T20:35:26.047Z,89.94
2022-09-25T20:37:53.402Z,90.99
2022-09-25T20:40:20.081Z,91.21
2022-09-25T20:42:46.918Z,91.41
2022-09-25T20:45:16.111Z,92.32
2022-09-25T20:47:46.518Z,93.08
2022-09-25T20:50:13.270Z,93.10
2022-09-25T20:52:39.961Z,92.64
2022-09-25T20:55:06.653Z,93.10
2022-09-25T20:57:33.496Z,93.91
2022-09-25T21:00:01.920Z,93.45
2022-09-25T21:02:29.508Z,92.82
2022-09-25T21:04:56.980Z,93.61
2022-09-25T21:07:25.608Z,93.23
2022-09-25T21:09:53.119Z,93.71
2022-09-25T21:12:19.910Z,94.11
2022-09-25T21:14:46.632Z,94.65
2022-09-25T21:17:13.198Z,94.55
2022-09-25T21:19:40.365Z,95.04
2022-09-25T21:22:07.024Z,95.56
2022-09-25T21:24:33.562Z,95.42
2022-09-25T21:26:59.972Z,95.59
2022-09-25T21:29:26.888Z,96.23
2022-09-25T21:31:54.698Z,97.04
2022-09-25T21:34:21.193Z,97.18
2022-09-25T21:36:48.805Z,96.68
2022-09-25T21:39:15.927Z,97.68
2022-09-25T21:41:42.527Z,97.66
2022-09-25T21:44:13.229Z,98.79
2022-09-25T21:46:40.089Z,98.51
2022-09-25T21:49:07.382Z,98.74
2022-09-25T21:51:39.168Z,98.92
2022-09-25T21:54:07.774Z,100.00
2022-09-25T21:56:34.567Z,100.00
2022-09-25T21:59:08.699Z,100.00
2022-09-25T22:01:38.471Z,100.00
2022-09-25T22:04:05.645Z,100.00
2022-09-25T22:06:44.462Z,100.00
2022-09-25T22:09:17.734Z,100.00
2022-09-25T22:11:44.264Z,100.00
2022-09-25T22:14:15.365Z,100.00
2022-09-25T22:16:43.201Z,100.00
2022-09-25T22:19:18.648Z,100.00
2022-09-25T22:21:47.134Z,100.00
2022-09-25T22:24:14.065Z,100.00
2022-09-25T22:26:42.716Z,100.00
2022-09-25T22:29:09.693Z,100.00
2022-09-25T22:31:38.357Z,100.00
2022-09-25T22:34:06.902Z,100.00
2022-09-25T22:36:35.898Z,100.00
2022-09-25T22:39:04.356Z,100.00
2022-09-25T22:41:30.782Z,100.00
2022-09-25T22:43:59.649Z,100.00
2022-09-25T22:46:27.383Z,100.00
2022-09-25T22:48:53.847Z,100.00
2022-09-25T22:51:22.206Z,100.00
2022-09-25T22:53:49.428Z,100.00
2022-09-25T22:56:18.347Z,100.00
2022-09-25T22:58:47.953Z,100.00
2022-09-25T23:01:36.674Z,100.00
2022-09-25T23:04:05.883Z,100.00
2022-09-25T23:06:33.649Z,100.00
2022-09-25T23:09:04.504Z,100.00
2022-09-25T23:11:31.585Z,100.00
2022-09-25T23:14:04.249Z,100.00
2022-09-25T23:16:32.055Z,100.00
2022-09-25T23:18:59.356Z,100.00
2022-09-25T23:21:27.073Z,100.00
2022-09-25T23:24:01.984Z,100.00
2022-09-25T23:26:29.495Z,100.00
2022-09-25T23:28:57.809Z,100.00
2022-09-25T23:31:24.465Z,100.00
2022-09-25T23:33:51.049Z,100.00
2022-09-25T23:36:22.307Z,100.00
2022-09-25T23:38:50.371Z,100.00
2022-09-25T23:41:21.823Z,100.00
2022-09-25T23:43:49.997Z,100.00
2022-09-25T23:46:18.150Z,100.00
2022-09-25T23:48:45.244Z,100.00
2022-09-25T23:51:12.839Z,100.00
2022-09-25T23:53:40.830Z,100.00
2022-09-25T23:56:19.601Z,100.00
2022-09-25T23:58:46.568Z,100.00
